sensor_id;sensor_type;location;lat;lon;timestamp;temperature;humidity
4002;DHT22;2015;48.670;9.060;2022-12-07T00:00:10;3.70;99.90
4002;DHT22;2015;48.670;9.060;2022-12-07T00:02:43;3.70;99.90
4002;DHT22;2015;48.670;9.060;2022-12-07T00:05:14;3.70;99.90
4002;DHT22;2015;48.670;9.060;2022-12-07T00:07:46;3.70;99.90
4002;DHT22;2015;48.670;9.060;2022-12-07T00:10:18;3.70;99.90
4002;DHT22;2015;48.670;9.060;2022-12-07T00:12:49;3.70;99.90
4002;DHT22;2015;48.670;9.060;2022-12-07T00:15:21;3.80;99.90
4002;DHT22;2015;48.670;9.060;2022-12-07T00:17:53;3.70;99.90
4002;DHT22;2015;48.670;9.060;2022-12-07T00:20:25;3.70;99.90
4002;DHT22;2015;48.670;9.060;2022-12-07T00:22:57;3.80;99.90
4002;DHT22;2015;48.670;9.060;2022-12-07T00:25:30;3.80;99.90
4002;DHT22;2015;48.670;9.060;2022-12-07T00:28:02;3.80;99.90
4002;DHT22;2015;48.670;9.060;2022-12-07T00:30:33;3.80;99.90
4002;DHT22;2015;48.670;9.060;2022-12-07T00:33:05;3.80;99.90
4002;DHT22;2015;48.670;9.060;2022-12-07T00:35:37;3.80;99.90
4002;DHT22;2015;48.670;9.060;2022-12-07T00:38:09;3.80;99.90
4002;DHT22;2015;48.670;9.060;2022-12-07T00:40:40;3.80;99.90
4002;DHT22;2015;48.670;9.060;2022-12-07T00:43:12;3.80;99.90
4002;DHT22;2015;48.670;9.060;2022-12-07T00:45:44;3.80;99.90
4002;DHT22;2015;48.670;9.060;2022-12-07T00:48:16;3.80;99.90
4002;DHT22;2015;48.670;9.060;2022-12-07T00:50:48;3.80;99.90
4002;DHT22;2015;48.670;9.060;2022-12-07T00:53:20;3.90;99.90
4002;DHT22;2015;48.670;9.060;2022-12-07T00:55:52;3.90;99.90
4002;DHT22;2015;48.670;9.060;2022-12-07T00:58:30;3.80;99.90
4002;DHT22;2015;48.670;9.060;2022-12-07T01:01:02;3.80;99.90
4002;DHT22;2015;48.670;9.060;2022-12-07T01:03:35;3.90;99.90
4002;DHT22;2015;48.670;9.060;2022-12-07T01:06:08;3.80;99.90
4002;DHT22;2015;48.670;9.060;2022-12-07T01:08:39;3.90;99.90
4002;DHT22;2015;48.670;9.060;2022-12-07T01:11:14;3.80;99.90
4002;DHT22;2015;48.670;9.060;2022-12-07T01:13:48;3.80;99.90
4002;DHT22;2015;48.670;9.060;2022-12-07T01:16:22;3.80;99.90
4002;DHT22;2015;48.670;9.060;2022-12-07T01:18:56;3.80;99.90
4002;DHT22;2015;48.670;9.060;2022-12-07T01:21:30;3.80;99.90
4002;DHT22;2015;48.670;9.060;2022-12-07T01:24:09;3.80;99.90
4002;DHT22;2015;48.670;9.060;2022-12-07T01:26:41;3.70;99.90
4002;DHT22;2015;48.670;9.060;2022-12-07T01:29:13;3.70;99.90
4002;DHT22;2015;48.670;9.060;2022-12-07T01:31:45;3.70;99.90
4002;DHT22;2015;48.670;9.060;2022-12-07T01:34:19;3.70;99.90
4002;DHT22;2015;48.670;9.060;2022-12-07T01:36:51;3.70;99.90
4002;DHT22;2015;48.670;9.060;2022-12-07T01:39:24;3.70;99.90
4002;DHT22;2015;48.670;9.060;2022-12-07T01:41:56;3.70;99.90
4002;DHT22;2015;48.670;9.060;2022-12-07T01:44:29;3.70;99.90
4002;DHT22;2015;48.670;9.060;2022-12-07T01:47:03;3.70;99.90
4002;DHT22;2015;48.670;9.060;2022-12-07T01:49:37;3.70;99.90
4002;DHT22;2015;48.670;9.060;2022-12-07T01:52:21;3.70;99.90
4002;DHT22;2015;48.670;9.060;2022-12-07T01:55:02;3.70;99.90
4002;DHT22;2015;48.670;9.060;2022-12-07T01:57:38;3.70;99.90
4002;DHT22;2015;48.670;9.060;2022-12-07T02:00:11;3.70;99.90
4002;DHT22;2015;48.670;9.060;2022-12-07T02:02:57;3.60;99.90
4002;DHT22;2015;48.670;9.060;2022-12-07T02:05:32;3.60;99.90
4002;DHT22;2015;48.670;9.060;2022-12-07T02:08:05;3.60;99.90
4002;DHT22;2015;48.670;9.060;2022-12-07T02:10:37;3.60;99.90
4002;DHT22;2015;48.670;9.060;2022-12-07T02:13:35;3.60;99.90
4002;DHT22;2015;48.670;9.060;2022-12-07T02:27:16;3.50;99.90
4002;DHT22;2015;48.670;9.060;2022-12-07T02:30:04;3.50;99.90
4002;DHT22;2015;48.670;9.060;2022-12-07T02:35:21;3.50;99.90
4002;DHT22;2015;48.670;9.060;2022-12-07T02:40:55;3.40;99.90
4002;DHT22;2015;48.670;9.060;2022-12-07T02:43:33;3.40;99.90
4002;DHT22;2015;48.670;9.060;2022-12-07T02:46:11;3.40;99.90
4002;DHT22;2015;48.670;9.060;2022-12-07T02:48:45;3.40;99.90
4002;DHT22;2015;48.670;9.060;2022-12-07T02:51:18;3.40;99.90
4002;DHT22;2015;48.670;9.060;2022-12-07T02:53:50;3.40;99.90
4002;DHT22;2015;48.670;9.060;2022-12-07T03:03:09;3.40;99.90
4002;DHT22;2015;48.670;9.060;2022-12-07T03:05:36;3.40;99.90
4002;DHT22;2015;48.670;9.060;2022-12-07T03:11:07;3.30;99.90
4002;DHT22;2015;48.670;9.060;2022-12-07T03:13:59;3.30;99.90
4002;DHT22;2015;48.670;9.060;2022-12-07T03:16:43;3.40;99.90
4002;DHT22;2015;48.670;9.060;2022-12-07T03:19:19;3.30;99.90
4002;DHT22;2015;48.670;9.060;2022-12-07T03:21:59;3.30;99.90
4002;DHT22;2015;48.670;9.060;2022-12-07T03:24:42;3.30;99.90
4002;DHT22;2015;48.670;9.060;2022-12-07T03:27:27;3.30;99.90
4002;DHT22;2015;48.670;9.060;2022-12-07T03:30:10;3.30;99.90
4002;DHT22;2015;48.670;9.060;2022-12-07T03:35:31;3.20;99.90
4002;DHT22;2015;48.670;9.060;2022-12-07T03:38:20;3.30;99.90
4002;DHT22;2015;48.670;9.060;2022-12-07T03:41:06;3.30;99.90
4002;DHT22;2015;48.670;9.060;2022-12-07T03:43:41;3.20;99.90
4002;DHT22;2015;48.670;9.060;2022-12-07T03:49:20;3.20;99.90
4002;DHT22;2015;48.670;9.060;2022-12-07T03:55:09;3.30;99.90
4002;DHT22;2015;48.670;9.060;2022-12-07T03:57:43;3.20;99.90
4002;DHT22;2015;48.670;9.060;2022-12-07T04:00:17;3.20;99.90
4002;DHT22;2015;48.670;9.060;2022-12-07T04:02:55;3.20;99.90
4002;DHT22;2015;48.670;9.060;2022-12-07T04:05:28;3.20;99.90
4002;DHT22;2015;48.670;9.060;2022-12-07T04:08:00;3.20;99.90
4002;DHT22;2015;48.670;9.060;2022-12-07T04:10:32;3.20;99.90
4002;DHT22;2015;48.670;9.060;2022-12-07T04:13:04;3.20;99.90
4002;DHT22;2015;48.670;9.060;2022-12-07T04:15:35;3.20;99.90
4002;DHT22;2015;48.670;9.060;2022-12-07T04:18:07;3.10;99.90
4002;DHT22;2015;48.670;9.060;2022-12-07T04:20:39;3.20;99.90
4002;DHT22;2015;48.670;9.060;2022-12-07T04:23:11;3.10;99.90
4002;DHT22;2015;48.670;9.060;2022-12-07T04:25:43;3.10;99.90
4002;DHT22;2015;48.670;9.060;2022-12-07T04:28:15;3.20;99.90
4002;DHT22;2015;48.670;9.060;2022-12-07T04:30:46;3.20;99.90
4002;DHT22;2015;48.670;9.060;2022-12-07T04:33:18;3.20;99.90
4002;DHT22;2015;48.670;9.060;2022-12-07T04:35:50;3.20;99.90
4002;DHT22;2015;48.670;9.060;2022-12-07T04:38:22;3.20;99.90
4002;DHT22;2015;48.670;9.060;2022-12-07T04:40:53;3.20;99.90
4002;DHT22;2015;48.670;9.060;2022-12-07T04:43:25;3.20;99.90
4002;DHT22;2015;48.670;9.060;2022-12-07T04:45:57;3.20;99.90
4002;DHT22;2015;48.670;9.060;2022-12-07T04:48:29;3.10;99.90
4002;DHT22;2015;48.670;9.060;2022-12-07T04:51:02;3.10;99.90
4002;DHT22;2015;48.670;9.060;2022-12-07T04:53:35;3.10;99.90
4002;DHT22;2015;48.670;9.060;2022-12-07T04:56:06;3.10;99.90
4002;DHT22;2015;48.670;9.060;2022-12-07T04:58:38;3.10;99.90
4002;DHT22;2015;48.670;9.060;2022-12-07T05:01:10;3.20;99.90
4002;DHT22;2015;48.670;9.060;2022-12-07T05:03:42;3.10;99.90
4002;DHT22;2015;48.670;9.060;2022-12-07T05:06:14;3.10;99.90
4002;DHT22;2015;48.670;9.060;2022-12-07T05:08:46;3.10;99.90
4002;DHT22;2015;48.670;9.060;2022-12-07T05:11:18;3.00;99.90
4002;DHT22;2015;48.670;9.060;2022-12-07T05:14:17;2.90;99.90
4002;DHT22;2015;48.670;9.060;2022-12-07T05:16:50;2.80;99.90
4002;DHT22;2015;48.670;9.060;2022-12-07T05:19:22;2.70;99.90
4002;DHT22;2015;48.670;9.060;2022-12-07T05:21:54;2.60;99.90
4002;DHT22;2015;48.670;9.060;2022-12-07T05:24:26;2.50;99.90
4002;DHT22;2015;48.670;9.060;2022-12-07T05:26:58;2.50;99.90
4002;DHT22;2015;48.670;9.060;2022-12-07T05:29:30;2.60;99.90
4002;DHT22;2015;48.670;9.060;2022-12-07T05:32:01;2.50;99.90
4002;DHT22;2015;48.670;9.060;2022-12-07T05:34:33;2.50;99.90
4002;DHT22;2015;48.670;9.060;2022-12-07T05:37:05;2.40;99.90
4002;DHT22;2015;48.670;9.060;2022-12-07T05:39:36;2.40;99.90
4002;DHT22;2015;48.670;9.060;2022-12-07T05:42:12;2.40;99.90
4002;DHT22;2015;48.670;9.060;2022-12-07T05:44:45;2.30;99.90
4002;DHT22;2015;48.670;9.060;2022-12-07T05:47:17;2.30;99.90
4002;DHT22;2015;48.670;9.060;2022-12-07T05:49:49;2.20;99.90
4002;DHT22;2015;48.670;9.060;2022-12-07T05:52:21;2.00;99.90
4002;DHT22;2015;48.670;9.060;2022-12-07T05:54:53;1.90;99.90
4002;DHT22;2015;48.670;9.060;2022-12-07T05:57:25;1.70;99.90
4002;DHT22;2015;48.670;9.060;2022-12-07T05:59:57;1.60;99.90
4002;DHT22;2015;48.670;9.060;2022-12-07T06:02:28;1.50;99.90
4002;DHT22;2015;48.670;9.060;2022-12-07T06:05:00;1.40;99.90
4002;DHT22;2015;48.670;9.060;2022-12-07T06:07:32;1.60;99.90
4002;DHT22;2015;48.670;9.060;2022-12-07T06:10:04;1.70;99.90
4002;DHT22;2015;48.670;9.060;2022-12-07T06:12:36;1.60;99.90
4002;DHT22;2015;48.670;9.060;2022-12-07T06:15:10;1.60;99.90
4002;DHT22;2015;48.670;9.060;2022-12-07T06:17:44;1.60;99.90
4002;DHT22;2015;48.670;9.060;2022-12-07T06:20:16;1.50;99.90
4002;DHT22;2015;48.670;9.060;2022-12-07T06:22:48;1.50;99.90
4002;DHT22;2015;48.670;9.060;2022-12-07T06:25:19;1.50;99.90
4002;DHT22;2015;48.670;9.060;2022-12-07T06:27:51;1.60;99.90
4002;DHT22;2015;48.670;9.060;2022-12-07T06:30:23;1.60;99.90
4002;DHT22;2015;48.670;9.060;2022-12-07T06:32:55;1.70;99.90
4002;DHT22;2015;48.670;9.060;2022-12-07T06:35:26;1.80;99.90
4002;DHT22;2015;48.670;9.060;2022-12-07T06:37:58;1.80;99.90
4002;DHT22;2015;48.670;9.060;2022-12-07T06:40:30;1.90;99.90
4002;DHT22;2015;48.670;9.060;2022-12-07T06:43:02;2.00;99.90
4002;DHT22;2015;48.670;9.060;2022-12-07T06:45:33;2.00;99.90
4002;DHT22;2015;48.670;9.060;2022-12-07T06:48:05;2.10;99.90
4002;DHT22;2015;48.670;9.060;2022-12-07T06:50:37;2.10;99.90
4002;DHT22;2015;48.670;9.060;2022-12-07T06:53:09;2.10;99.90
4002;DHT22;2015;48.670;9.060;2022-12-07T06:55:41;2.10;99.90
4002;DHT22;2015;48.670;9.060;2022-12-07T06:58:13;2.20;99.90
4002;DHT22;2015;48.670;9.060;2022-12-07T07:00:45;2.20;99.90
4002;DHT22;2015;48.670;9.060;2022-12-07T07:03:19;2.30;99.90
4002;DHT22;2015;48.670;9.060;2022-12-07T07:05:51;2.30;99.90
4002;DHT22;2015;48.670;9.060;2022-12-07T07:08:22;2.30;99.90
4002;DHT22;2015;48.670;9.060;2022-12-07T07:10:55;2.30;99.90
4002;DHT22;2015;48.670;9.060;2022-12-07T07:13:27;2.30;99.90
4002;DHT22;2015;48.670;9.060;2022-12-07T07:15:59;2.30;99.90
4002;DHT22;2015;48.670;9.060;2022-12-07T07:18:31;2.30;99.90
4002;DHT22;2015;48.670;9.060;2022-12-07T07:21:03;2.30;99.90
4002;DHT22;2015;48.670;9.060;2022-12-07T07:23:35;2.30;99.90
4002;DHT22;2015;48.670;9.060;2022-12-07T07:26:06;2.30;99.90
4002;DHT22;2015;48.670;9.060;2022-12-07T07:28:38;2.20;99.90
4002;DHT22;2015;48.670;9.060;2022-12-07T07:31:10;2.20;99.90
4002;DHT22;2015;48.670;9.060;2022-12-07T07:33:42;2.20;99.90
4002;DHT22;2015;48.670;9.060;2022-12-07T07:36:14;2.20;99.90
4002;DHT22;2015;48.670;9.060;2022-12-07T07:38:45;2.10;99.90
4002;DHT22;2015;48.670;9.060;2022-12-07T07:41:17;2.10;99.90
4002;DHT22;2015;48.670;9.060;2022-12-07T07:43:49;2.10;99.90
4002;DHT22;2015;48.670;9.060;2022-12-07T07:46:21;2.20;99.90
4002;DHT22;2015;48.670;9.060;2022-12-07T07:48:52;2.20;99.90
4002;DHT22;2015;48.670;9.060;2022-12-07T07:51:24;2.20;99.90
4002;DHT22;2015;48.670;9.060;2022-12-07T07:53:56;2.30;99.90
4002;DHT22;2015;48.670;9.060;2022-12-07T07:56:28;2.40;99.90
4002;DHT22;2015;48.670;9.060;2022-12-07T07:59:00;2.40;99.90
4002;DHT22;2015;48.670;9.060;2022-12-07T08:01:32;2.60;99.90
4002;DHT22;2015;48.670;9.060;2022-12-07T08:04:03;2.50;99.90
4002;DHT22;2015;48.670;9.060;2022-12-07T08:06:35;2.50;99.90
4002;DHT22;2015;48.670;9.060;2022-12-07T08:09:07;2.50;99.90
4002;DHT22;2015;48.670;9.060;2022-12-07T08:11:39;2.60;99.90
4002;DHT22;2015;48.670;9.060;2022-12-07T08:14:11;2.60;99.90
4002;DHT22;2015;48.670;9.060;2022-12-07T08:16:43;2.70;99.90
4002;DHT22;2015;48.670;9.060;2022-12-07T08:19:15;2.70;99.90
4002;DHT22;2015;48.670;9.060;2022-12-07T08:21:46;2.80;99.90
4002;DHT22;2015;48.670;9.060;2022-12-07T08:24:19;2.80;99.90
4002;DHT22;2015;48.670;9.060;2022-12-07T08:26:51;2.90;99.90
4002;DHT22;2015;48.670;9.060;2022-12-07T08:29:23;2.90;99.90
4002;DHT22;2015;48.670;9.060;2022-12-07T08:31:55;3.00;99.90
4002;DHT22;2015;48.670;9.060;2022-12-07T08:34:26;3.10;99.90
4002;DHT22;2015;48.670;9.060;2022-12-07T08:36:58;3.20;99.90
4002;DHT22;2015;48.670;9.060;2022-12-07T08:39:30;3.20;99.90
4002;DHT22;2015;48.670;9.060;2022-12-07T08:42:03;3.30;99.90
4002;DHT22;2015;48.670;9.060;2022-12-07T08:44:35;3.30;99.90
4002;DHT22;2015;48.670;9.060;2022-12-07T08:47:08;3.40;99.90
4002;DHT22;2015;48.670;9.060;2022-12-07T08:49:43;3.40;99.90
4002;DHT22;2015;48.670;9.060;2022-12-07T08:52:17;3.40;99.90
4002;DHT22;2015;48.670;9.060;2022-12-07T08:54:49;3.50;99.90
4002;DHT22;2015;48.670;9.060;2022-12-07T08:57:21;3.50;99.90
4002;DHT22;2015;48.670;9.060;2022-12-07T08:59:53;3.50;99.90
4002;DHT22;2015;48.670;9.060;2022-12-07T09:02:25;3.60;99.90
4002;DHT22;2015;48.670;9.060;2022-12-07T09:04:56;3.60;99.90
4002;DHT22;2015;48.670;9.060;2022-12-07T09:07:30;3.60;99.90
4002;DHT22;2015;48.670;9.060;2022-12-07T09:10:04;3.70;99.90
4002;DHT22;2015;48.670;9.060;2022-12-07T09:12:36;3.70;99.90
4002;DHT22;2015;48.670;9.060;2022-12-07T09:15:08;3.80;99.90
4002;DHT22;2015;48.670;9.060;2022-12-07T09:17:40;3.80;99.90
4002;DHT22;2015;48.670;9.060;2022-12-07T09:20:12;3.80;99.90
4002;DHT22;2015;48.670;9.060;2022-12-07T09:22:44;3.80;99.90
4002;DHT22;2015;48.670;9.060;2022-12-07T09:25:15;3.70;99.90
4002;DHT22;2015;48.670;9.060;2022-12-07T09:27:47;3.60;99.90
4002;DHT22;2015;48.670;9.060;2022-12-07T09:30:19;3.60;99.90
4002;DHT22;2015;48.670;9.060;2022-12-07T09:32:53;3.80;99.90
4002;DHT22;2015;48.670;9.060;2022-12-07T09:35:25;4.00;99.90
4002;DHT22;2015;48.670;9.060;2022-12-07T09:37:57;4.00;99.90
4002;DHT22;2015;48.670;9.060;2022-12-07T09:40:29;4.10;99.90
4002;DHT22;2015;48.670;9.060;2022-12-07T09:43:00;4.20;99.90
4002;DHT22;2015;48.670;9.060;2022-12-07T09:45:35;4.10;99.90
4002;DHT22;2015;48.670;9.060;2022-12-07T09:48:18;4.10;99.90
4002;DHT22;2015;48.670;9.060;2022-12-07T09:50:52;4.20;99.90
4002;DHT22;2015;48.670;9.060;2022-12-07T09:53:29;4.20;99.90
4002;DHT22;2015;48.670;9.060;2022-12-07T09:56:02;4.20;99.90
4002;DHT22;2015;48.670;9.060;2022-12-07T09:58:33;4.20;99.90
4002;DHT22;2015;48.670;9.060;2022-12-07T10:01:18;4.30;99.90
4002;DHT22;2015;48.670;9.060;2022-12-07T10:03:58;4.30;99.90
4002;DHT22;2015;48.670;9.060;2022-12-07T10:06:30;4.40;99.90
4002;DHT22;2015;48.670;9.060;2022-12-07T10:09:12;4.40;99.90
4002;DHT22;2015;48.670;9.060;2022-12-07T10:12:10;4.40;99.90
4002;DHT22;2015;48.670;9.060;2022-12-07T10:15:09;4.30;99.90
4002;DHT22;2015;48.670;9.060;2022-12-07T10:17:48;4.20;99.90
4002;DHT22;2015;48.670;9.060;2022-12-07T10:20:24;4.30;99.90
4002;DHT22;2015;48.670;9.060;2022-12-07T10:23:04;4.40;99.90
4002;DHT22;2015;48.670;9.060;2022-12-07T10:25:37;4.50;99.90
4002;DHT22;2015;48.670;9.060;2022-12-07T10:28:16;4.50;99.90
4002;DHT22;2015;48.670;9.060;2022-12-07T10:30:52;4.50;99.90
4002;DHT22;2015;48.670;9.060;2022-12-07T10:33:48;4.70;99.90
4002;DHT22;2015;48.670;9.060;2022-12-07T10:36:37;4.80;99.90
4002;DHT22;2015;48.670;9.060;2022-12-07T10:39:14;4.90;99.90
4002;DHT22;2015;48.670;9.060;2022-12-07T10:44:48;5.00;99.90
4002;DHT22;2015;48.670;9.060;2022-12-07T10:47:29;4.90;99.90
4002;DHT22;2015;48.670;9.060;2022-12-07T10:53:57;4.90;99.90
4002;DHT22;2015;48.670;9.060;2022-12-07T10:56:52;5.00;99.90
4002;DHT22;2015;48.670;9.060;2022-12-07T11:02:47;4.90;99.90
4002;DHT22;2015;48.670;9.060;2022-12-07T11:11:55;4.90;99.90
4002;DHT22;2015;48.670;9.060;2022-12-07T11:14:49;4.90;99.90
4002;DHT22;2015;48.670;9.060;2022-12-07T11:17:39;4.90;99.90
4002;DHT22;2015;48.670;9.060;2022-12-07T11:37:41;5.10;99.90
4002;DHT22;2015;48.670;9.060;2022-12-07T11:40:30;5.10;99.90
4002;DHT22;2015;48.670;9.060;2022-12-07T11:43:26;5.10;99.90
4002;DHT22;2015;48.670;9.060;2022-12-07T11:46:08;5.20;99.90
4002;DHT22;2015;48.670;9.060;2022-12-07T11:51:22;5.20;99.90
4002;DHT22;2015;48.670;9.060;2022-12-07T11:54:01;5.20;99.90
4002;DHT22;2015;48.670;9.060;2022-12-07T11:56:35;5.10;99.90
4002;DHT22;2015;48.670;9.060;2022-12-07T11:59:13;5.10;99.90
4002;DHT22;2015;48.670;9.060;2022-12-07T12:02:16;5.10;99.90
4002;DHT22;2015;48.670;9.060;2022-12-07T12:05:13;5.10;99.90
4002;DHT22;2015;48.670;9.060;2022-12-07T12:07:48;5.10;99.90
4002;DHT22;2015;48.670;9.060;2022-12-07T12:11:00;5.20;99.90
4002;DHT22;2015;48.670;9.060;2022-12-07T12:13:48;5.40;99.90
4002;DHT22;2015;48.670;9.060;2022-12-07T12:16:52;5.50;99.90
4002;DHT22;2015;48.670;9.060;2022-12-07T12:22:21;5.40;99.90
4002;DHT22;2015;48.670;9.060;2022-12-07T12:24:56;5.40;99.90
4002;DHT22;2015;48.670;9.060;2022-12-07T12:27:36;5.40;99.90
4002;DHT22;2015;48.670;9.060;2022-12-07T12:30:30;5.50;99.90
4002;DHT22;2015;48.670;9.060;2022-12-07T12:33:30;5.40;99.90
4002;DHT22;2015;48.670;9.060;2022-12-07T12:36:23;5.40;99.90
4002;DHT22;2015;48.670;9.060;2022-12-07T12:49:40;4.90;99.90
4002;DHT22;2015;48.670;9.060;2022-12-07T12:55:02;4.90;99.90
4002;DHT22;2015;48.670;9.060;2022-12-07T12:57:43;4.90;99.90
4002;DHT22;2015;48.670;9.060;2022-12-07T13:00:19;4.90;99.90
4002;DHT22;2015;48.670;9.060;2022-12-07T13:02:56;5.00;99.90
4002;DHT22;2015;48.670;9.060;2022-12-07T13:05:31;5.00;99.90
4002;DHT22;2015;48.670;9.060;2022-12-07T13:08:20;5.10;99.90
4002;DHT22;2015;48.670;9.060;2022-12-07T13:10:53;5.10;99.90
4002;DHT22;2015;48.670;9.060;2022-12-07T13:13:28;5.20;99.90
4002;DHT22;2015;48.670;9.060;2022-12-07T13:18:41;5.20;99.90
4002;DHT22;2015;48.670;9.060;2022-12-07T13:26:36;5.30;99.90
4002;DHT22;2015;48.670;9.060;2022-12-07T13:29:20;5.20;99.90
4002;DHT22;2015;48.670;9.060;2022-12-07T13:31:54;5.10;99.90
4002;DHT22;2015;48.670;9.060;2022-12-07T13:34:41;5.10;99.90
4002;DHT22;2015;48.670;9.060;2022-12-07T13:37:30;5.00;99.90
4002;DHT22;2015;48.670;9.060;2022-12-07T13:40:18;4.90;99.90
4002;DHT22;2015;48.670;9.060;2022-12-07T13:43:02;4.80;99.90
4002;DHT22;2015;48.670;9.060;2022-12-07T13:45:34;4.90;99.90
4002;DHT22;2015;48.670;9.060;2022-12-07T13:48:31;5.00;99.90
4002;DHT22;2015;48.670;9.060;2022-12-07T13:51:19;5.10;99.90
4002;DHT22;2015;48.670;9.060;2022-12-07T13:54:06;5.10;99.90
4002;DHT22;2015;48.670;9.060;2022-12-07T13:56:40;4.90;99.90
4002;DHT22;2015;48.670;9.060;2022-12-07T13:59:24;4.90;99.90
4002;DHT22;2015;48.670;9.060;2022-12-07T14:01:56;4.90;99.90
4002;DHT22;2015;48.670;9.060;2022-12-07T14:04:38;4.90;99.90
4002;DHT22;2015;48.670;9.060;2022-12-07T14:07:30;4.90;99.90
4002;DHT22;2015;48.670;9.060;2022-12-07T14:10:05;4.90;99.90
4002;DHT22;2015;48.670;9.060;2022-12-07T14:12:37;4.90;99.90
4002;DHT22;2015;48.670;9.060;2022-12-07T14:15:41;4.80;99.90
4002;DHT22;2015;48.670;9.060;2022-12-07T14:18:27;4.80;99.90
4002;DHT22;2015;48.670;9.060;2022-12-07T14:21:05;4.80;99.90
4002;DHT22;2015;48.670;9.060;2022-12-07T14:23:38;4.80;99.90
4002;DHT22;2015;48.670;9.060;2022-12-07T14:26:14;4.90;99.90
4002;DHT22;2015;48.670;9.060;2022-12-07T14:28:47;4.80;99.90
4002;DHT22;2015;48.670;9.060;2022-12-07T14:31:24;4.80;99.90
4002;DHT22;2015;48.670;9.060;2022-12-07T14:34:01;4.80;99.90
4002;DHT22;2015;48.670;9.060;2022-12-07T14:36:33;4.80;99.90
4002;DHT22;2015;48.670;9.060;2022-12-07T14:39:05;4.80;99.90
4002;DHT22;2015;48.670;9.060;2022-12-07T14:41:43;4.70;99.90
4002;DHT22;2015;48.670;9.060;2022-12-07T14:44:24;4.70;99.90
4002;DHT22;2015;48.670;9.060;2022-12-07T14:47:02;4.70;99.90
4002;DHT22;2015;48.670;9.060;2022-12-07T14:49:54;4.60;99.90
4002;DHT22;2015;48.670;9.060;2022-12-07T14:52:29;4.60;99.90
4002;DHT22;2015;48.670;9.060;2022-12-07T14:55:27;4.60;99.90
4002;DHT22;2015;48.670;9.060;2022-12-07T14:57:59;4.60;99.90
4002;DHT22;2015;48.670;9.060;2022-12-07T15:00:31;4.60;99.90
4002;DHT22;2015;48.670;9.060;2022-12-07T15:03:03;4.60;99.90
4002;DHT22;2015;48.670;9.060;2022-12-07T15:05:36;4.60;99.90
4002;DHT22;2015;48.670;9.060;2022-12-07T15:08:12;4.50;99.90
4002;DHT22;2015;48.670;9.060;2022-12-07T15:10:44;4.50;99.90
4002;DHT22;2015;48.670;9.060;2022-12-07T15:13:16;4.40;99.90
4002;DHT22;2015;48.670;9.060;2022-12-07T15:16:10;4.40;99.90
4002;DHT22;2015;48.670;9.060;2022-12-07T15:18:42;4.30;99.90
4002;DHT22;2015;48.670;9.060;2022-12-07T15:21:34;4.30;99.90
4002;DHT22;2015;48.670;9.060;2022-12-07T15:24:07;4.40;99.90
4002;DHT22;2015;48.670;9.060;2022-12-07T15:26:40;4.30;99.90
4002;DHT22;2015;48.670;9.060;2022-12-07T15:29:12;4.30;99.90
4002;DHT22;2015;48.670;9.060;2022-12-07T15:31:53;4.30;99.90
4002;DHT22;2015;48.670;9.060;2022-12-07T15:34:28;4.30;99.90
4002;DHT22;2015;48.670;9.060;2022-12-07T15:37:09;4.30;99.90
4002;DHT22;2015;48.670;9.060;2022-12-07T15:39:41;4.20;99.90
4002;DHT22;2015;48.670;9.060;2022-12-07T15:42:13;4.20;99.90
4002;DHT22;2015;48.670;9.060;2022-12-07T15:44:45;4.30;99.90
4002;DHT22;2015;48.670;9.060;2022-12-07T15:47:41;4.20;99.90
4002;DHT22;2015;48.670;9.060;2022-12-07T15:50:33;4.20;99.90
4002;DHT22;2015;48.670;9.060;2022-12-07T15:53:05;4.20;99.90
4002;DHT22;2015;48.670;9.060;2022-12-07T15:55:40;4.20;99.90
4002;DHT22;2015;48.670;9.060;2022-12-07T15:58:12;4.20;99.90
4002;DHT22;2015;48.670;9.060;2022-12-07T16:00:44;4.10;99.90
4002;DHT22;2015;48.670;9.060;2022-12-07T16:03:16;4.00;99.90
4002;DHT22;2015;48.670;9.060;2022-12-07T16:05:49;3.90;99.90
4002;DHT22;2015;48.670;9.060;2022-12-07T16:08:21;3.90;99.90
4002;DHT22;2015;48.670;9.060;2022-12-07T16:10:53;3.90;99.90
4002;DHT22;2015;48.670;9.060;2022-12-07T16:13:25;3.80;99.90
4002;DHT22;2015;48.670;9.060;2022-12-07T16:15:56;3.80;99.90
4002;DHT22;2015;48.670;9.060;2022-12-07T16:18:28;3.80;99.90
4002;DHT22;2015;48.670;9.060;2022-12-07T16:21:00;3.80;99.90
4002;DHT22;2015;48.670;9.060;2022-12-07T16:23:32;3.70;99.90
4002;DHT22;2015;48.670;9.060;2022-12-07T16:26:09;3.70;99.90
4002;DHT22;2015;48.670;9.060;2022-12-07T16:28:42;3.70;99.90
4002;DHT22;2015;48.670;9.060;2022-12-07T16:31:16;3.70;99.90
4002;DHT22;2015;48.670;9.060;2022-12-07T16:33:49;3.70;99.90
4002;DHT22;2015;48.670;9.060;2022-12-07T16:36:21;3.70;99.90
4002;DHT22;2015;48.670;9.060;2022-12-07T16:39:13;3.70;99.90
4002;DHT22;2015;48.670;9.060;2022-12-07T16:41:45;3.70;99.90
4002;DHT22;2015;48.670;9.060;2022-12-07T16:44:17;3.70;99.90
4002;DHT22;2015;48.670;9.060;2022-12-07T16:46:49;3.70;99.90
4002;DHT22;2015;48.670;9.060;2022-12-07T16:49:20;3.70;99.90
4002;DHT22;2015;48.670;9.060;2022-12-07T16:51:52;3.70;99.90
4002;DHT22;2015;48.670;9.060;2022-12-07T16:54:45;3.70;99.90
4002;DHT22;2015;48.670;9.060;2022-12-07T16:57:17;3.60;99.90
4002;DHT22;2015;48.670;9.060;2022-12-07T16:59:53;3.60;99.90
4002;DHT22;2015;48.670;9.060;2022-12-07T17:02:25;3.50;99.90
4002;DHT22;2015;48.670;9.060;2022-12-07T17:04:57;3.60;99.90
4002;DHT22;2015;48.670;9.060;2022-12-07T17:07:29;3.60;99.90
4002;DHT22;2015;48.670;9.060;2022-12-07T17:10:01;3.60;99.90
4002;DHT22;2015;48.670;9.060;2022-12-07T17:12:32;3.50;99.90
4002;DHT22;2015;48.670;9.060;2022-12-07T17:15:05;3.50;99.90
4002;DHT22;2015;48.670;9.060;2022-12-07T17:17:54;3.50;99.90
4002;DHT22;2015;48.670;9.060;2022-12-07T17:20:27;3.40;99.90
4002;DHT22;2015;48.670;9.060;2022-12-07T17:22:59;3.40;99.90
4002;DHT22;2015;48.670;9.060;2022-12-07T17:25:30;3.30;99.90
4002;DHT22;2015;48.670;9.060;2022-12-07T17:28:02;3.30;99.90
4002;DHT22;2015;48.670;9.060;2022-12-07T17:30:34;3.30;99.90
4002;DHT22;2015;48.670;9.060;2022-12-07T17:33:06;3.30;99.90
4002;DHT22;2015;48.670;9.060;2022-12-07T17:35:38;3.30;99.90
4002;DHT22;2015;48.670;9.060;2022-12-07T17:38:09;3.30;99.90
4002;DHT22;2015;48.670;9.060;2022-12-07T17:40:41;3.30;99.90
4002;DHT22;2015;48.670;9.060;2022-12-07T17:43:13;3.30;99.90
4002;DHT22;2015;48.670;9.060;2022-12-07T17:45:45;3.20;99.90
4002;DHT22;2015;48.670;9.060;2022-12-07T17:48:16;3.20;99.90
4002;DHT22;2015;48.670;9.060;2022-12-07T17:50:48;3.20;99.90
4002;DHT22;2015;48.670;9.060;2022-12-07T17:53:38;3.20;99.90
4002;DHT22;2015;48.670;9.060;2022-12-07T17:56:10;3.20;99.90
4002;DHT22;2015;48.670;9.060;2022-12-07T17:58:59;3.30;99.90
4002;DHT22;2015;48.670;9.060;2022-12-07T18:01:32;3.20;99.90
4002;DHT22;2015;48.670;9.060;2022-12-07T18:04:05;3.20;99.90
4002;DHT22;2015;48.670;9.060;2022-12-07T18:06:37;3.30;99.90
4002;DHT22;2015;48.670;9.060;2022-12-07T18:09:09;3.30;99.90
4002;DHT22;2015;48.670;9.060;2022-12-07T18:11:42;3.30;99.90
4002;DHT22;2015;48.670;9.060;2022-12-07T18:14:14;3.30;99.90
4002;DHT22;2015;48.670;9.060;2022-12-07T18:16:47;3.30;99.90
4002;DHT22;2015;48.670;9.060;2022-12-07T18:19:20;3.30;99.90
4002;DHT22;2015;48.670;9.060;2022-12-07T18:21:52;3.30;99.90
4002;DHT22;2015;48.670;9.060;2022-12-07T18:24:24;3.30;99.90
4002;DHT22;2015;48.670;9.060;2022-12-07T18:26:56;3.30;99.90
4002;DHT22;2015;48.670;9.060;2022-12-07T18:29:27;3.20;99.90
4002;DHT22;2015;48.670;9.060;2022-12-07T18:31:59;3.20;99.90
4002;DHT22;2015;48.670;9.060;2022-12-07T18:34:32;3.20;99.90
4002;DHT22;2015;48.670;9.060;2022-12-07T18:37:03;3.10;99.90
4002;DHT22;2015;48.670;9.060;2022-12-07T18:39:35;3.10;99.90
4002;DHT22;2015;48.670;9.060;2022-12-07T18:42:07;3.10;99.90
4002;DHT22;2015;48.670;9.060;2022-12-07T18:44:39;3.20;99.90
4002;DHT22;2015;48.670;9.060;2022-12-07T18:47:10;3.20;99.90